Bantry, North Dakota
Current Conditions -  °F | °C
As of 10:15 AM on Thursday 30 Oct 2014 (Local Time) from KRUG Reporting Station
Scattered Clouds Scattered Clouds  
Wind Chill: 23°   Ceiling: Unl
Heat Index: 32°   Visibility: 10mi
Dew Point: 28°   Wind: 12mph
Humidity: 87%   Direction: 30°NNE
Pressure: 30.33"   Gusts: NA
Location:  48.5°N, 100.61°W
Report Text: KRUG 301515Z AUTO 03010KT 10SM SCT017 00/M02 A3033 RMK AO2
Loading
Personal Weather Stations






























Interactive Weather Map
Tropical Storm Tracking
New forecast layout! Learn more

10-Day Weather Forecast

Advertisements
Track Severe Weather on mobile